Decoded Metar for KLLJ (CHALLIS in ID, USA) (IATA:LLJ) | Meteo·Mobile Aviation Weather
aviador You're here:

KLLJ Decoded Metar

CHALLIS in ID, USA
Report Time2019-03-20 22:55:00
UTC Time2019-03-20 23:54:57
Flight Rules vfr VFR
WindCalm
Visibility9999 m
Phenomena:N/A
Clouds:N/A
Expected CloudBase > 9,200 ft AGL from Temp-Dew spread
CeilingNone
Temp16°C (ISA +11)
Dew Point-7°C (20% RH)
AAT13.2°C
QNH1020 hPa
Density Alt6,138 ft
Elevation5,039 ft
Report Wrong Elevation
Raw Report
KLLJ 202255Z AUTO 00000KT 10SM CLR 16/M07 A3013 RMK AO2 SLP189
T01561067=

Extra information for KLLJ:More info

Metar Taf Metar & Taf Last 4 Metars F.Rules Stats Wind Profile Meteogram Temp Stats Airport Information Weather charts Add Link Nearby VenuesMetar ALERT Operation Metar Decoded Social comments

AIRNAV info for KLLJ